Latest Weather Observations for Wilcannia Airport

IDN60801

Issued at 10:33 pm EST Sunday 3 July 2022 (issued every 10 minutes, with the page automatically refreshed every 10 minutes)

About weather observations | Map of weather stations | Latest weather observations for NSW | Other Formats
Station Details ID: 046012 Name: WILCANNIA AERODROME AWS Lat: -31.52 Lon: 143.38 Height: 94.3 m
Data from the previous 72 hours. | See also: Recent months at Wilcannia Airport
Date/Time
EST
Temp
°C
App
Temp
°C
Dew
Point
°C
Rel
Hum
%
Delta-T
°C
Wind Press
QNH
hPa
Press
MSL
hPa
Rain since
9am
mm
Dir  Spd
km/h
Gust
km/h
Spd
kts
Gust
kts
03/10:30pm 8.4 3.6 4.8 78 1.6 SW 19 22 10 12 1022.1 1022.2 0.0
03/10:00pm 9.0 4.1 5.0 76 1.8 SW 20 28 11 15 1022.2 1022.3 0.0
03/09:30pm 9.3 5.1 5.5 77 1.7 SSW 17 24 9 13 1022.4 1022.5 0.0
03/09:00pm 9.7 5.5 5.7 76 1.8 SW 17 22 9 12 1022.4 1022.5 0.0
03/08:30pm 11.3 6.5 4.5 63 3.1 SSW 19 24 10 13 1022.5 1022.7 0.0
03/08:00pm 11.8 5.9 4.1 59 3.5 SSW 24 35 13 19 1022.4 1022.5 0.0
03/07:30pm 12.3 6.1 4.5 59 3.6 SSW 26 35 14 19 1022.2 1022.3 0.0
03/07:00pm 12.2 6.8 4.4 59 3.5 SSW 22 30 12 16 1022.0 1022.1 0.0
03/06:30pm 12.0 7.2 4.7 61 3.3 SSW 19 26 10 14 1021.6 1021.7 0.0
03/06:00pm 11.7 7.3 4.7 62 3.2 SSW 17 20 9 11 1021.5 1021.6 0.0
03/05:30pm 12.3 7.5 4.8 60 3.5 SSW 19 26 10 14 1021.3 1021.4 0.0
03/05:00pm 12.8 7.1 4.8 58 3.7 SSW 24 37 13 20 1021.2 1021.3 0.0
03/04:30pm 13.0 7.3 4.9 58 3.8 SSW 24 33 13 18 1021.0 1021.1 0.0
03/04:00pm 12.9 7.1 4.6 57 3.8 SSW 24 37 13 20 1021.0 1021.1 0.0
03/03:30pm 13.6 7.9 5.0 56 4.0 SSW 24 33 13 18 1020.7 1020.8 0.0
03/03:00pm 13.5 7.4 4.9 56 4.0 SSW 26 33 14 18 1021.0 1021.1 0.0
03/02:30pm 13.6 7.9 5.0 56 4.0 S 24 33 13 18 1021.0 1021.1 0.0
03/02:00pm 13.3 7.2 5.0 57 3.9 SSW 26 37 14 20 1021.2 1021.3 0.0
03/01:30pm 12.7 6.3 5.1 60 3.5 SSW 28 35 15 19 1021.3 1021.4 0.0
03/01:00pm 12.4 6.0 5.1 61 3.4 SSW 28 37 15 20 1021.6 1021.7 0.0
03/12:30pm 11.8 5.7 5.0 63 3.1 SW 26 35 14 19 1022.0 1022.1 0.0
03/12:00pm 10.9 4.3 4.4 64 2.9 SSW 28 37 15 20 1022.6 1022.8 0.0
03/11:30am 10.2 4.0 4.4 67 2.6 SW 26 33 14 18 1023.3 1023.5 0.0
03/11:00am 9.4 3.6 4.4 71 2.2 SSW 24 33 13 18 1023.7 1023.9 0.0
03/10:30am 8.3 2.1 4.1 75 1.8 SW 26 32 14 17 1023.6 1023.8 0.0
03/10:00am 7.0 0.6 3.4 78 1.5 SSW 26 35 14 19 1023.7 1023.9 0.0
03/09:30am 6.0 -0.1 3.0 81 1.3 SSW 24 32 13 17 1023.8 1024.0 0.0
03/09:00am 5.2 -0.1 3.2 87 0.8 SSW 20 24 11 13 1024.3 1024.4 0.0
03/08:30am 3.9 -0.9 2.6 91 0.5 SW 17 20 9 11 1024.1 1024.2 0.0
03/08:00am 3.6 -1.6 2.3 91 0.5 SW 19 24 10 13 1023.7 1023.9 0.0
03/07:30am 3.2 -2.1 2.0 92 0.5 SW 19 24 10 13 1023.6 1023.8 0.0
03/07:00am 3.4 -1.5 2.1 91 0.5 SSW 17 22 9 12 1023.5 1023.7 0.0
03/06:30am 3.6 -1.8 2.3 91 0.5 SW 20 24 11 13 1023.4 1023.6 0.0
03/06:00am 3.8 -1.6 2.3 90 0.6 SW 20 28 11 15 1023.2 1023.4 0.0
03/05:30am 4.0 -1.2 2.5 90 0.6 SW 19 24 10 13 1023.1 1023.3 0.0
03/05:00am 4.3 -1.1 2.7 89 0.6 SW 20 26 11 14 1022.9 1023.1 0.0
03/04:30am 4.5 -0.9 2.7 88 0.7 SSW 20 26 11 14 1023.0 1023.2 0.0
03/04:00am 4.9 -0.4 2.8 86 0.9 SW 20 26 11 14 1023.2 1023.4 0.0
03/03:30am 5.2 -0.2 2.7 84 1.0 SSW 20 28 11 15 1023.3 1023.5 0.0
03/03:00am 6.0 0.4 3.2 82 1.2 SSW 22 30 12 16 1023.3 1023.5 0.0
03/02:30am 6.0 0.7 3.0 81 1.3 SW 20 26 11 14 1023.6 1023.8 0.0
03/02:00am 6.1 0.8 2.9 80 1.3 SW 20 28 11 15 1024.1 1024.2 0.0
03/01:30am 6.1 1.7 2.9 80 1.3 SW 15 20 8 11 1024.2 1024.3 0.0
03/01:00am 6.4 1.3 3.0 79 1.4 SSW 19 26 10 14 1024.4 1024.5 0.0
03/12:30am 6.8 1.7 3.1 77 1.6 SSW 19 24 10 13 1024.7 1024.8 0.0
03/12:00am 7.2 2.5 3.3 76 1.6 S 17 26 9 14 1025.0 1025.1 0.0
 
Date/Time
EST
Temp
°C
App
Temp
°C
Dew
Point
°C
Rel
Hum
%
Delta-T
°C
Wind Press
QNH
hPa
Press
MSL
hPa
Rain since
9am
mm
Dir  Spd
km/h
Gust
km/h
Spd
kts
Gust
kts
02/11:30pm 8.1 2.1 3.4 72 2.0 SSW 24 30 13 16 1025.1 1025.2 0.0
02/11:00pm 8.2 2.2 3.5 72 2.0 S 24 35 13 19 1025.2 1025.3 0.0
02/10:30pm 8.4 2.4 3.5 71 2.1 SSW 24 32 13 17 1025.3 1025.4 0.0
02/10:00pm 8.6 2.6 3.6 71 2.2 SSW 24 33 13 18 1025.4 1025.5 0.0
02/09:30pm 8.7 3.8 4.1 73 2.0 SSW 19 26 10 14 1025.8 1025.9 0.0
02/09:00pm 8.6 4.1 4.2 74 1.9 SSW 17 26 9 14 1025.5 1025.6 0.0
02/08:30pm 8.8 4.7 4.4 74 1.9 SSW 15 20 8 11 1025.5 1025.6 0.0
02/08:00pm 9.6 4.8 4.4 70 2.3 SW 19 26 10 14 1025.1 1025.2 0.0
02/07:30pm 11.1 6.1 4.6 64 2.9 SSW 20 28 11 15 1025.1 1025.2 0.0
02/07:00pm 11.8 6.0 4.5 61 3.3 S 24 35 13 19 1025.0 1025.1 0.0
02/06:30pm 12.2 7.3 4.9 61 3.4 SSW 20 32 11 17 1024.9 1025.0 0.0
02/06:00pm 12.4 7.5 5.1 61 3.4 SSW 20 28 11 15 1024.7 1024.8 0.0
02/05:30pm 12.8 7.2 5.2 60 3.5 SSW 24 35 13 19 1024.5 1024.6 0.0
02/05:00pm 13.4 8.2 5.3 58 3.8 SSW 22 32 12 17 1024.7 1024.8 0.0
02/04:30pm 13.2 7.6 5.4 59 3.7 SSW 24 37 13 20 1024.6 1024.7 0.0
02/04:00pm 13.7 7.8 5.6 58 3.8 SSW 26 35 14 19 1024.4 1024.5 0.0
02/03:30pm 14.0 7.7 5.6 57 4.0 SSW 28 35 15 19 1024.4 1024.5 0.0
02/03:00pm 13.7 8.2 6.1 60 3.6 SSW 24 35 13 19 1024.3 1024.4 0.0
02/02:30pm 13.4 7.9 5.8 60 3.6 SSW 24 35 13 19 1024.7 1024.8 0.0
02/02:00pm 13.3 7.5 6.4 63 3.3 SSW 26 39 14 21 1025.0 1025.1 0.0
02/01:30pm 12.8 7.3 5.7 62 3.3 SSW 24 32 13 17 1025.2 1025.3 0.0
02/01:00pm 12.2 6.3 6.0 66 2.9 SSW 26 33 14 18 1025.5 1025.6 0.0
02/12:30pm 11.6 6.4 5.5 66 2.8 SSW 22 28 12 15 1026.2 1026.3 0.0
02/12:00pm 11.4 6.3 5.9 69 2.6 SSW 22 30 12 16 1026.7 1026.8 0.0
02/11:30am 10.3 4.0 5.5 72 2.2 SSW 28 39 15 21 1027.0 1027.1 0.0
02/11:00am 9.2 2.8 5.0 75 1.9 SSW 28 35 15 19 1027.3 1027.4 0.0
02/10:30am 8.2 1.7 4.8 79 1.5 SSW 28 37 15 20 1027.5 1027.6 0.0
02/10:00am 8.1 2.4 4.9 80 1.4 SW 24 33 13 18 1027.8 1027.9 0.0
02/09:30am 6.9 1.9 4.4 84 1.1 SW 20 28 11 15 1027.4 1027.5 0.0
02/09:00am 5.5 0.5 3.8 89 0.7 SW 19 28 10 15 1027.6 1027.7 0.2
02/08:30am 4.5 0.2 3.2 91 0.5 SW 15 22 8 12 1027.6 1027.7 0.2
02/08:00am 3.2 -1.3 2.2 93 0.4 WSW 15 19 8 10 1027.5 1027.6 0.0
02/07:30am 2.7 -2.2 1.7 93 0.4 SW 17 19 9 10 1027.4 1027.5 0.0
02/07:00am 2.6 -1.6 1.4 92 0.5 WSW 13 15 7 8 1027.2 1027.3 0.0
02/06:30am 3.0 -1.2 1.8 92 0.5 SW 13 15 7 8 1026.9 1027.0 0.0
02/06:00am 3.4 -1.1 2.2 92 0.5 SW 15 19 8 10 1026.6 1026.7 0.0
02/05:30am 3.3 -1.2 2.0 91 0.5 SW 15 17 8 9 1026.6 1026.7 0.0
02/05:00am 4.0 -0.8 2.7 91 0.5 SW 17 20 9 11 1026.6 1026.7 0.0
02/04:30am 4.4 -0.3 2.9 90 0.6 SSW 17 22 9 12 1026.9 1027.0 0.0
02/04:00am 4.5 0.2 3.2 91 0.5 SW 15 20 8 11 1027.1 1027.2 0.0
02/03:30am 4.7 0.4 3.2 90 0.6 SW 15 19 8 10 1027.3 1027.4 0.0
02/03:00am 4.9 0.2 3.2 89 0.7 SW 17 20 9 11 1027.3 1027.4 0.0
02/02:30am 4.9 1.0 3.4 90 0.6 SW 13 19 7 10 1027.4 1027.5 0.0
02/02:00am 4.7 0.3 2.9 88 0.7 SW 15 19 8 10 1027.5 1027.6 0.0
02/01:30am 4.9 0.9 2.8 86 0.9 SW 13 17 7 9 1027.6 1027.7 0.0
02/01:00am 5.3 1.3 3.0 85 0.9 SW 13 19 7 10 1027.6 1027.7 0.0
02/12:30am 5.5 1.2 3.0 84 1.0 SW 15 19 8 10 1027.8 1027.9 0.0
02/12:00am 5.6 1.6 2.9 83 1.1 SW 13 17 7 9 1027.9 1028.0 0.0
 
Date/Time
EST
Temp
°C
App
Temp
°C
Dew
Point
°C
Rel
Hum
%
Delta-T
°C
Wind Press
QNH
hPa
Press
MSL
hPa
Rain since
9am
mm
Dir  Spd
km/h
Gust
km/h
Spd
kts
Gust
kts
01/11:30pm 6.2 1.9 3.2 81 1.3 SW 15 17 8 9 1027.8 1027.9 0.0
01/11:00pm 6.5 2.2 3.5 81 1.3 SW 15 19 8 10 1027.7 1027.8 0.0
01/10:30pm 6.8 2.8 3.1 77 1.6 SW 13 17 7 9 1027.6 1027.7 0.0
01/10:00pm 9.2 4.3 4.2 71 2.2 SSW 19 24 10 13 1027.6 1027.7 0.0
01/09:30pm 9.3 4.4 4.3 71 2.2 SSW 19 24 10 13 1027.6 1027.7 0.0
01/09:00pm 9.8 5.0 4.4 69 2.4 SSW 19 26 10 14 1027.7 1027.8 0.0
01/08:30pm 8.5 4.0 4.1 74 1.9 SSW 17 19 9 10 1027.4 1027.5 0.0
01/08:00pm 8.1 3.9 3.9 75 1.8 SSW 15 19 8 10 1027.1 1027.2 0.0
01/07:30pm 8.6 4.4 4.0 73 2.0 SSW 15 17 8 9 1026.9 1027.0 0.0
01/07:00pm 8.8 4.3 4.0 72 2.1 SSW 17 19 9 10 1026.6 1026.7 0.0
01/06:30pm 9.2 5.0 3.8 69 2.4 SSW 15 19 8 10 1026.5 1026.6 0.0
01/06:00pm 10.3 6.1 3.8 64 2.9 SW 15 19 8 10 1026.1 1026.2 0.0
01/05:30pm 11.9 7.4 4.2 59 3.5 SSW 17 22 9 12 1025.9 1026.0 0.0
01/05:00pm 13.4 8.4 4.6 55 4.0 SSW 20 28 11 15 1025.7 1025.8 0.0
01/04:30pm 14.1 8.8 4.9 54 4.3 SSW 22 32 12 17 1025.7 1025.8 0.0
01/04:00pm 14.6 9.3 5.1 53 4.5 SSW 22 32 12 17 1025.6 1025.7 0.0
01/03:30pm 14.9 9.6 5.1 52 4.6 SSW 22 32 12 17 1025.5 1025.6 0.0
01/03:00pm 15.3 9.9 6.3 55 4.4 SSW 24 32 13 17 1025.5 1025.6 0.0
01/02:30pm 15.1 9.2 5.9 54 4.4 SSW 26 35 14 19 1025.5 1025.6 0.0
01/02:00pm 14.8 9.3 5.9 55 4.3 SSW 24 35 13 19 1025.7 1025.8 0.0
01/01:30pm 14.4 9.0 6.3 58 3.9 SSW 24 32 13 17 1026.3 1026.4 0.0
01/01:00pm 14.3 9.8 6.9 61 3.6 SSW 20 30 11 16 1026.7 1026.8 0.0
01/12:30pm 11.7 7.2 6.0 68 2.7 SSW 19 24 10 13 1027.1 1027.2 0.0
01/12:00pm 10.7 6.0 6.1 73 2.1 S 20 30 11 16 1027.4 1027.5 0.0
01/11:30am 9.9 5.4 5.9 76 1.8 SSW 19 24 10 13 1027.5 1027.6 0.0
01/11:00am 9.3 4.8 5.9 79 1.6 SSW 19 24 10 13 1027.9 1028.0 0.0
01/10:30am 8.2 3.9 5.3 82 1.3 SSW 17 24 9 13 1027.8 1027.9 0.0
01/10:00am 7.7 3.1 5.5 86 1.0 SSW 19 24 10 13 1028.1 1028.2 0.0
01/09:30am 6.0 1.6 4.5 90 0.6 SW 17 22 9 12 1027.8 1027.9 0.0
01/09:00am 5.2 1.4 4.0 92 0.5 SW 13 17 7 9 1027.3 1027.4 0.2
01/08:30am 4.7 0.9 3.7 93 0.4 SW 13 15 7 8 1026.6 1026.7 0.2
01/08:00am 4.0 0.8 3.0 93 0.4 SW 9 13 5 7 1026.6 1026.7 0.2
01/07:30am 3.8 -0.2 2.8 93 0.4 SW 13 17 7 9 1026.1 1026.2 0.2
01/07:00am 4.0 0.0 3.0 93 0.4 SW 13 19 7 10 1026.3 1026.4 0.2
01/06:30am 3.9 -0.1 2.9 93 0.4 SW 13 17 7 9 1026.3 1026.4 0.2
01/06:00am 3.6 -0.4 2.7 94 0.4 SW 13 17 7 9 1025.4 1025.5 0.0
01/05:30am 3.7 -0.3 2.7 93 0.4 SW 13 13 7 7 1025.5 1025.6 0.0
01/05:00am 3.7 0.1 2.8 94 0.4 SW 11 13 6 7 1025.9 1026.0 0.0
01/04:30am 3.4 -0.7 2.4 93 0.4 SW 13 15 7 8 1025.6 1025.7 0.0
01/04:00am 3.6 -0.4 2.6 93 0.4 SW 13 15 7 8 1025.3 1025.4 0.0
01/03:30am 3.7 -0.3 2.7 93 0.4 SW 13 15 7 8 1025.3 1025.4 0.0
01/03:00am 3.6 -0.1 2.6 93 0.4 SW 11 15 6 8 1025.4 1025.5 0.0
01/02:30am 3.8 -0.2 2.6 92 0.5 SW 13 13 7 7 1025.3 1025.4 0.0
01/02:00am 4.2 0.6 3.0 92 0.5 SW 11 13 6 7 1025.2 1025.3 0.0
01/01:30am 4.3 0.3 3.1 92 0.5 SW 13 15 7 8 1025.2 1025.3 0.0
01/01:00am 4.6 0.6 3.1 90 0.6 SW 13 15 7 8 1025.3 1025.4 0.0
01/12:30am 5.3 1.4 3.5 88 0.8 SW 13 17 7 9 1025.3 1025.4 0.0
01/12:00am 5.6 1.8 3.8 88 0.8 SW 13 17 7 9 1025.1 1025.2 0.0
 
Date/Time
EST
Temp
°C
App
Temp
°C
Dew
Point
°C
Rel
Hum
%
Delta-T
°C
Wind Press
QNH
hPa
Press
MSL
hPa
Rain since
9am
mm
Dir  Spd
km/h
Gust
km/h
Spd
kts
Gust
kts
30/11:30pm 5.8 2.0 4.0 88 0.8 SW 13 15 7 8 1025.1 1025.2 0.0
30/11:00pm 6.1 2.7 4.1 87 0.9 SW 11 13 6 7 1025.3 1025.4 0.0

Other formats

Comma delimited format used in spreadsheet applications
http://www.bom.gov.au/fwo/IDN60801/IDN60801.95695.axf

JavaScript Object Notation format (JSON) in row-major order
http://www.bom.gov.au/fwo/IDN60801/IDN60801.95695.json

Data quality

Most of these data are generated automatically and are frequently updated. Quality checks on data are not normally performed. It is possible for incorrect values to appear. Refer to information at About Latest Weather Observations and please check the disclaimer before using these data.